• Join FlightAware (Why Join?)
  • Login
  • US Flag GB Flag 
13:05 EST


 

Airport Tracker/Info


-or-


 

Live Flight TrackerFlight Track Log ✈ AAY876 ✈ 16-Mar-2014 ✈ KPIE - KRFD

Flight Track Log - Related Links

Times and Time Zones

All times are in EDT time to prevent confusion due to time zone crossing. See the AAY876 flight status page for this flight to view local times or setup timezone preferences in your user account.

Time Position Orientation Groundspeed Altitude Reporting Facility
EDT Latitude Longitude Course Direction KTS MPH feet Rate Location/Type
16:09 27.9000 -82.6833 180° South 146 168 1,000  Level Tampa TRACON
16:10 27.8500 -82.6833 180° South 188 216 3,000 1,920 Climbing Tampa TRACON
16:11 27.8333 -82.7333 249° West 246 283 4,900 2,160 Climbing Tampa TRACON
16:13 27.9789 -82.7728 347° North 310 357 9,800 2,040 Climbing Jacksonville Center
16:14 28.0728 -82.7797 356° North 317 365 11,300 1,500 Climbing Jacksonville Center
16:15 28.1792 -82.8008 350° North 350 403 12,800 1,800 Climbing Jacksonville Center
16:16 28.2939 -82.8172 353° North 391 450 15,000 2,100 Climbing Jacksonville Center
16:17 28.4150 -82.8406 350° North 419 482 17,100 1,920 Climbing Jacksonville Center
16:18 28.5339 -82.8594 352° North 429 494 18,900 1,860 Climbing Jacksonville Center
16:19 28.6569 -82.8831 350° North 434 499 20,900 1,800 Climbing Jacksonville Center
16:20 28.7969 -82.9069 351° North 445 512 22,500 1,500 Climbing Jacksonville Center
16:21 28.9264 -82.9258 353° North 455 524 23,900 1,500 Climbing Jacksonville Center
16:22 29.0556 -82.9567 348° North 467 537 25,600 1,500 Climbing Jacksonville Center
16:23 29.1683 -83.0211 333° Northwest 453 521 27,000 1,200 Climbing Jacksonville Center
16:24 29.2831 -83.0758 337° Northwest 453 521 28,000 480 Climbing Jacksonville Center
16:25 29.4000 -83.1214 341° North 442 509 28,000  Level Jacksonville Center
16:26 29.5022 -83.1717 337° Northwest 442 509 28,000  Level Jacksonville Center
16:27 29.6272 -83.2150 343° North 448 516 28,000 480 Level Jacksonville Center
16:28 29.7567 -83.2658 341° North 448 516 29,000 1,020 Climbing Jacksonville Center
16:29 29.8631 -83.2997 345° North 443 510 30,100 780 Climbing Jacksonville Center
16:30 29.9797 -83.3531 338° Northwest 438 504 30,600 960 Climbing Jacksonville Center
16:31 30.0964 -83.3919 344° North 438 504 32,100 900 Climbing Jacksonville Center
16:32 30.2069 -83.4406 339° North 438 504 32,400 540 Climbing Jacksonville Center
16:33 30.3217 -83.4725 346° North 425 489 33,200 420 Climbing Jacksonville Center
16:34 30.4361 -83.5069 345° North 414 476 33,300 180 Climbing Jacksonville Center
16:35 30.5489 -83.5367 347° North 414 476 33,600 300 Climbing Jacksonville Center
16:36 30.6614 -83.5664 347° North 414 476 34,000 240 Climbing Jacksonville Center
16:37 30.7697 -83.6008 345° North 408 470 34,100  Climbing Jacksonville Center
16:38 30.8844 -83.6333 346° North 413 475 34,000 -60 Descending Jacksonville Center
16:39 31.0011 -83.6658 347° North 413 475 34,000  Level Jacksonville Center
16:40 31.1139 -83.6981 346° North 413 475 34,000  Level Jacksonville Center
16:42 31.3769 -83.7761 346° North 417 480 34,000  Level Atlanta Center
16:43 31.4958 -83.8100 346° North 428 493 34,000  Level Atlanta Center
16:44 31.6169 -83.8461 346° North 433 498 34,000  Level Atlanta Center
16:45 31.7381 -83.8778 347° North 438 504 34,000  Level Atlanta Center
16:46 31.8592 -83.9167 345° North 446 513 34,000  Level Atlanta Center
16:47 31.9825 -83.9483 348° North 446 513 34,000  Level Atlanta Center
16:48 32.1161 -83.9897 345° North 451 519 34,000  Level Atlanta Center
16:49 32.2414 -84.0242 347° North 451 519 34,000  Level Atlanta Center
16:50 32.3664 -84.0633 345° North 451 519 34,000  Level Atlanta Center
16:51 32.4958 -84.0981 347° North 457 526 34,000  Level Atlanta Center
16:52 32.6211 -84.1425 343° North 457 526 34,000  Level Atlanta Center
16:53 32.7525 -84.1772 347° North 468 539 34,000  Level Atlanta Center
16:54 32.8800 -84.2219 344° North 481 554 34,000  Level Atlanta Center
16:55 33.0114 -84.2544 348° North 476 548 34,000  Level Atlanta Center
16:56 33.1281 -84.2944 344° North 481 554 34,000  Level Atlanta Center
16:57 33.2594 -84.3269 348° North 476 548 34,000  Level Atlanta Center
16:58 33.3908 -84.3697 345° North 481 554 34,000  Level Atlanta Center
16:59 33.5244 -84.4050 348° North 487 560 34,000  Level Atlanta Center
17:00 33.6558 -84.4481 345° North 487 560 34,000  Level Atlanta Center
17:01 33.7936 -84.4761 350° North 493 567 34,000  Level Atlanta Center
17:02 33.9247 -84.5119 347° North 493 567 34,000  Level Atlanta Center
17:03 34.0667 -84.5428 350° North 493 567 34,000  Level Atlanta Center
17:04 34.2208 -84.5814 348° North 507 583 34,000  Level Atlanta Center
17:05 34.3419 -84.6047 351° North 502 578 34,000  Level Atlanta Center
17:06 34.4711 -84.6408 347° North 491 565 34,000  Level Atlanta Center
17:07 34.6086 -84.6722 349° North 487 560 34,000  Level Atlanta Center
17:08 34.7358 -84.7111 346° North 482 555 34,000  Level Atlanta Center
17:09 34.8672 -84.7400 350° North 477 549 34,000  Level Atlanta Center
17:10 34.9983 -84.7767 347° North 477 549 34,000  Level Atlanta Center
17:11 35.1297 -84.8058 350° North 477 549 34,000  Level Atlanta Center
17:12 35.2567 -84.8400 348° North 472 543 34,000  Level Atlanta Center
17:13 35.3881 -84.8692 350° North 472 543 34,000  Level Atlanta Center
17:14 35.5275 -84.9089 347° North 472 543 34,000  Level Atlanta Center
17:15 35.6586 -84.9383 350° North 472 543 34,000  Level Atlanta Center
17:16 35.7878 -84.9783 346° North 472 543 34,000  Level Atlanta Center
17:17 35.9647 -85.0119 351° North 479 551 34,000  Level Indianapolis Center
17:18 36.0825 -85.0489 346° North 479 551 34,000  Level Indianapolis Center
17:19 36.2422 -85.0833 350° North 482 555 34,000  Level Indianapolis Center
17:20 36.3708 -85.1225 346° North 481 554 34,000  Level Indianapolis Center
17:21 36.5028 -85.1511 350° North 477 549 34,000  Level Indianapolis Center
17:22 36.6322 -85.1894 347° North 478 550 34,000  Level Indianapolis Center
17:23 36.7639 -85.2197 350° North 478 550 34,000  Level Indianapolis Center
17:24 36.8925 -85.2581 347° North 478 550 34,000  Level Indianapolis Center
17:26 37.0519 -85.2928 350° North 478 550 34,000  Level Indianapolis Center
17:27 37.1808 -85.3333 346° North 478 550 34,000  Level Indianapolis Center
17:28 37.3133 -85.3633 350° North 479 551 34,000  Level Indianapolis Center
17:29 37.4422 -85.4017 347° North 477 549 34,000  Level Indianapolis Center
17:30 37.5681 -85.4294 350° North 463 533 34,000  Level Indianapolis Center
17:31 37.7122 -85.4756 346° North 461 531 34,000  Level Indianapolis Center
17:32 37.8408 -85.5053 350° North 461 531 34,000  Level Indianapolis Center
17:33 37.9503 -85.5414 345° North 461 531 34,000  Level Indianapolis Center
17:34 38.1044 -85.5786 349° North 466 536 34,000  Level Indianapolis Center
17:35 38.2125 -85.6511 332° Northwest 444 511 34,000  Level Indianapolis Center
17:36 38.3292 -85.7111 338° Northwest 444 511 34,000  Level Indianapolis Center
17:37 38.4394 -85.7750 336° Northwest 442 509 34,000  Level Indianapolis Center
17:38 38.5497 -85.8414 335° Northwest 438 504 34,000  Level Indianapolis Center
17:39 38.6619 -85.9092 335° Northwest 442 509 34,000  Level Indianapolis Center
17:40 38.7986 -85.9875 336° Northwest 444 511 34,000  Level Indianapolis Center
17:41 38.8969 -86.0492 334° Northwest 445 512 34,000  Level Indianapolis Center
17:42 39.0114 -86.1153 336° Northwest 446 513 34,000  Level Indianapolis Center
17:43 39.1422 -86.2000 333° Northwest 437 503 34,000  Level Indianapolis Center
17:44 39.2572 -86.2631 337° Northwest 444 511 34,000  Level Indianapolis Center
17:45 39.3675 -86.3339 334° Northwest 445 512 34,000  Level Indianapolis Center
17:46 39.4817 -86.3986 336° Northwest 445 512 34,000  Level Indianapolis Center
17:47 39.5919 -86.4714 333° Northwest 445 512 34,000  Level Indianapolis Center
17:48 39.7061 -86.5375 336° Northwest 441 507 34,000  Level Indianapolis Center
17:49 39.8167 -86.6092 334° Northwest 440 506 34,000  Level Indianapolis Center
17:50 39.9289 -86.6756 336° Northwest 439 505 34,000  Level Indianapolis Center
17:51 40.0603 -86.7606 334° Northwest 439 505 34,000  Level Indianapolis Center
17:52 40.1728 -86.8256 336° Northwest 441 507 34,000  Level Chicago Center
17:53 40.2744 -86.9053 329° Northwest 426 490 34,000  Level Chicago Center
17:55 40.3419 -87.0208 307° West 400 460 34,000  Level Chicago Center
17:56 40.4189 -87.1311 313° West 407 468 34,000  Level Chicago Center
17:57 40.5000 -87.2556 311° West 401 461 34,000  Level Chicago Center
17:58 40.5697 -87.3717 308° West 402 463 34,000  Level Chicago Center
17:59 40.6422 -87.4869 310° West 408 470 34,000  Level Chicago Center
18:00 40.7094 -87.6078 306° West 409 471 34,000 -540 Level Chicago Center
18:01 40.7944 -87.7500 308° West 410 472 32,900 -960 Descending Chicago Center
18:02 40.8642 -87.8608 310° West 395 455 32,000 -480 Descending Chicago Center
18:03 40.9258 -87.9622 309° West 391 450 32,000  Level Chicago Center
18:04 40.9989 -88.0883 308° West 393 452 32,000  Level Chicago Center
18:05 41.0661 -88.2025 308° West 393 452 32,000 -780 Level Chicago Center
18:06 41.1339 -88.3161 308° West 389 448 30,400 -2,340 Descending Chicago Center
18:07 41.2144 -88.4600 307° West 400 460 27,200 -2,880 Descending Chicago Center
18:08 41.2842 -88.5736 309° West 395 455 24,400 -2,820 Descending Chicago Center
18:09 41.3489 -88.6886 307° West 387 445 21,400 -2,820 Descending Chicago Center
18:10 41.4092 -88.7903 308° West 356 410 18,600 -2,580 Descending Chicago Center
18:11 41.4622 -88.8936 304° West 339 390 16,100 -1,320 Descending Chicago Center
18:12 41.5233 -88.9886 311° West 334 384 15,900 -660 Descending Chicago Center
18:13 41.5881 -89.1069 306° West 331 381 14,800 -1,440 Descending Chicago Center
18:14 41.6483 -89.2036 310° West 337 388 13,000 -900 Descending Chicago Center
18:15 41.7111 -89.2906 314° West 329 379 13,000 -540 Level Chicago Center
18:16 41.7969 -89.2678 11° North 321 369 12,000 -1,200 Descending Chicago Center
18:17 41.8736 -89.2317 19° North 296 341 10,600 -1,980 Descending Chicago Center
18:18 41.9450 -89.2042 16° North 272 313 8,000 -2,700 Descending Chicago Center
18:19 42.0144 -89.2061 359° North 260 299 5,100 -2,400 Descending Chicago Center
18:20 42.0861 -89.2408 340° North 259 298 3,100 -1,980 Descending Chicago Center
18:22 42.1815 -89.1154 14° North  Level Estimated
18:29 42.1833 -89.0833 14° North  Level FlightAware Approximate